Gleisdorf, Austria
Current Conditions -  °F | °C
As of 6:50 PM on Friday 31 Oct 2014 (Local Time) from LOWG Reporting Station
Clear Clear  
Wind Chill: 45°   Ceiling: Unl
Heat Index: 45°   Visibility: 6mi
Dew Point: 41°   Wind: 1mph
Humidity: 87%   Direction: NA
Pressure: 30.33"   Gusts: NA
Location:  47.11°N, 15.71°E
Report Text: LOWG 311650Z VRB01KT CAVOK 07/05 Q1027 NOSIG
Loading
Personal Weather Stations






























Interactive Weather Map
Tropical Storm Tracking
New forecast layout! Learn more

10-Day Weather Forecast

Advertisements
Track Severe Weather on mobile